Time;durP1;ratioP1;P1;durP2;ratioP2;P2;SDS_P1;SDS_P2;PMS_P1;PMS_P2;Temp;Humidity;BMP_temperature;BMP_pressure;BME280_temperature;BME280_humidity;BME280_pressure;Samples;Min_cycle;Max_cycle;Signal;HPM_P1;HPM_P2
2022/01/28 00:01:04;;;;;;;4.10;1.92;;;;;;;3.16;79.34;99668.80;2149166;81;21023;-83
2022/01/28 00:04:14;;;;;;;4.20;1.90;;;;;;;3.11;79.65;99664.77;2166760;81;21011;-83
2022/01/28 00:07:15;;;;;;;8.45;3.10;;;;;;;3.06;79.69;99664.32;2168082;81;20972;-83
2022/01/28 00:10:18;;;;;;;5.78;2.00;;;;;;;3.03;79.83;99667.20;2165294;81;21031;-83
2022/01/28 00:39:18;;;;;;;6.78;2.72;;;;;;;3.04;80.54;99657.55;2168538;81;21006;-83
2022/01/28 00:42:20;;;;;;;3.87;1.87;;;;;;;2.99;80.78;99665.81;2168673;81;20969;-83
2022/01/28 00:45:22;;;;;;;5.42;2.20;;;;;;;2.96;80.71;99658.66;2168015;81;21073;-83
2022/01/28 00:48:23;;;;;;;8.20;2.60;;;;;;;2.94;80.68;99661.44;2169440;81;20946;-84
2022/01/28 00:51:25;;;;;;;5.08;2.12;;;;;;;2.89;80.58;99668.36;2168458;81;21058;-83
2022/01/28 00:54:27;;;;;;;7.10;1.70;;;;;;;2.81;80.06;99658.99;2142836;82;21715;-83
2022/01/28 00:57:29;;;;;;;3.22;1.90;;;;;;;2.75;79.91;99655.58;2168206;81;21505;-83
2022/01/28 01:00:31;;;;;;;8.98;1.62;;;;;;;2.71;79.82;99657.30;2168388;81;21537;-83
2022/01/28 01:03:33;;;;;;;3.47;1.77;;;;;;;2.67;79.75;99656.70;2163397;80;20989;-83
2022/01/28 01:06:35;;;;;;;9.43;2.20;;;;;;;2.63;79.77;99643.52;2168126;80;20973;-83
2022/01/28 01:09:36;;;;;;;9.75;2.20;;;;;;;2.56;79.63;99635.80;2170225;81;21015;-83
2022/01/28 01:12:43;;;;;;;4.22;2.22;;;;;;;2.52;79.86;99639.64;2165564;81;20998;-83
2022/01/28 01:15:45;;;;;;;6.30;2.30;;;;;;;2.51;80.02;99659.77;2168091;80;20980;-83
2022/01/28 01:19:02;;;;;;;4.30;2.17;;;;;;;2.45;80.24;99667.66;2166696;81;21639;-83
2022/01/28 01:21:57;;;;;;;9.05;2.22;;;;;;;2.41;80.76;99658.85;2167881;80;20992;-83
2022/01/28 01:25:03;;;;;;;5.67;1.90;;;;;;;2.40;80.63;99665.06;2144925;81;21030;-83
2022/01/28 01:28:00;;;;;;;5.15;2.20;;;;;;;2.38;80.59;99657.31;2172829;80;20990;-83
2022/01/28 01:31:04;;;;;;;6.53;2.30;;;;;;;2.37;80.46;99666.14;2175797;81;20954;-83
2022/01/28 01:34:15;;;;;;;6.55;2.52;;;;;;;2.35;80.20;99653.64;2164133;81;21034;-83
2022/01/28 01:37:15;;;;;;;14.00;2.40;;;;;;;2.35;79.84;99661.50;2175047;80;20978;-83
2022/01/28 01:40:25;;;;;;;6.17;1.90;;;;;;;2.33;79.77;99654.23;2170485;81;20978;-83
2022/01/28 01:53:07;;;;;;;7.30;2.25;;;;;;;2.28;79.79;99651.64;2171796;81;21055;-83
2022/01/28 01:56:08;;;;;;;7.58;1.70;;;;;;;2.29;79.85;99653.32;2168988;81;21036;-83
2022/01/28 01:59:09;;;;;;;5.83;2.17;;;;;;;2.29;79.92;99648.09;2140352;81;20987;-83
2022/01/28 02:02:12;;;;;;;7.50;2.02;;;;;;;2.32;79.87;99642.11;2174196;80;20937;-83
2022/01/28 02:05:14;;;;;;;9.73;2.62;;;;;;;2.35;79.97;99639.72;2170050;81;20987;-83
2022/01/28 02:08:15;;;;;;;8.53;2.20;;;;;;;2.38;80.01;99640.30;2170562;81;21497;-83
2022/01/28 02:11:16;;;;;;;8.03;2.25;;;;;;;2.41;79.84;99622.20;2142503;81;21489;-83
2022/01/28 02:14:18;;;;;;;6.87;2.20;;;;;;;2.45;79.75;99632.78;2166318;81;20945;-83
2022/01/28 02:17:19;;;;;;;9.05;2.08;;;;;;;2.51;79.46;99630.14;2161785;81;21043;-83
2022/01/28 02:20:30;;;;;;;7.33;2.65;;;;;;;2.58;79.60;99636.52;2164181;81;20983;-83
2022/01/28 02:23:27;;;;;;;5.85;2.25;;;;;;;2.63;79.10;99634.34;2161410;81;21038;-83
2022/01/28 02:26:30;;;;;;;12.60;2.70;;;;;;;2.66;79.08;99624.44;2165281;81;20950;-83
2022/01/28 02:29:34;;;;;;;9.43;2.35;;;;;;;2.70;78.93;99630.24;2106475;83;20999;-83
2022/01/28 02:32:34;;;;;;;6.37;2.55;;;;;;;2.72;78.82;99636.67;2161487;81;21045;-83
2022/01/28 02:35:38;;;;;;;9.05;2.55;;;;;;;2.71;78.72;99632.41;2161471;81;20966;-83
2022/01/28 02:38:39;;;;;;;6.55;2.20;;;;;;;2.69;78.76;99635.97;2158379;81;21048;-83
2022/01/28 02:41:44;;;;;;;9.85;2.20;;;;;;;2.65;79.05;99638.98;2164240;81;20942;-82
2022/01/28 02:44:48;;;;;;;6.53;1.98;;;;;;;2.58;79.26;99624.24;2116591;83;20973;-83
2022/01/28 02:47:50;;;;;;;8.05;1.57;;;;;;;2.52;79.50;99640.47;2166044;81;21537;-83
2022/01/28 02:51:03;;;;;;;5.42;1.87;;;;;;;2.48;79.78;99637.77;2162263;81;20998;-83
2022/01/28 02:54:10;;;;;;;5.17;1.70;;;;;;;2.46;79.75;99633.95;2161402;81;20976;-83
2022/01/28 02:57:05;;;;;;;6.75;1.80;;;;;;;2.44;80.00;99637.17;2162196;81;21040;-82
2022/01/28 03:00:07;;;;;;;6.12;2.20;;;;;;;2.43;80.34;99638.62;2163222;81;21022;-82
2022/01/28 03:03:09;;;;;;;6.40;1.50;;;;;;;2.39;80.44;99647.22;2157465;81;21020;-82
2022/01/28 03:06:13;;;;;;;5.25;1.42;;;;;;;2.37;80.78;99656.97;2163075;81;21026;-82
2022/01/28 03:09:19;;;;;;;6.20;1.70;;;;;;;2.33;80.92;99659.95;2123176;83;20998;-82
2022/01/28 03:12:29;;;;;;;5.53;2.05;;;;;;;2.29;81.11;99663.31;2096238;83;21022;-82
2022/01/28 03:15:22;;;;;;;5.65;1.75;;;;;;;2.24;81.41;99668.08;2097411;83;21348;-82
2022/01/28 03:18:30;;;;;;;9.98;1.87;;;;;;;2.20;81.81;99662.75;2096769;83;21501;-82
2022/01/28 03:24:32;;;;;;;5.35;1.62;;;;;;;2.14;81.97;99673.70;2095505;84;21447;-83
2022/01/28 03:27:50;;;;;;;5.97;2.10;;;;;;;2.12;82.33;99673.84;2075953;83;21042;-82
2022/01/28 03:30:43;;;;;;;8.80;2.27;;;;;;;2.12;82.39;99684.79;2097722;83;20995;-82
2022/01/28 03:33:44;;;;;;;9.90;2.33;;;;;;;2.09;82.60;99687.17;2101357;83;20987;-83
2022/01/28 03:36:47;;;;;;;10.60;2.47;;;;;;;2.06;82.80;99697.06;2099198;83;21292;-82
2022/01/28 03:39:49;;;;;;;5.00;1.72;;;;;;;2.02;83.18;99701.20;2098819;83;20971;-82
2022/01/28 03:42:50;;;;;;;7.67;1.72;;;;;;;2.00;83.21;99700.52;2099214;83;20971;-82
2022/01/28 03:45:52;;;;;;;8.08;1.95;;;;;;;1.99;83.27;99705.86;2093775;83;21532;-82
2022/01/28 03:48:55;;;;;;;7.08;1.62;;;;;;;1.99;83.35;99712.41;2075409;84;21003;-82
2022/01/28 03:51:56;;;;;;;9.13;1.85;;;;;;;1.98;83.65;99713.37;2100860;83;21523;-82
2022/01/28 03:54:58;;;;;;;10.58;2.60;;;;;;;1.97;83.71;99717.77;2100639;83;21058;-82
2022/01/28 03:58:00;;;;;;;7.58;2.30;;;;;;;1.96;83.85;99719.19;2094246;84;21078;-83
2022/01/28 04:01:03;;;;;;;9.60;1.82;;;;;;;1.95;83.83;99724.91;2091542;84;20979;-82
2022/01/28 04:04:53;;;;;;;5.10;1.55;;;;;;;1.97;83.90;99719.53;2094294;83;20975;-82
2022/01/28 04:13:50;;;;;;;12.23;2.67;;;;;;;2.09;83.74;99717.75;2090974;83;21038;-83
2022/01/28 04:20:10;;;;;;;5.72;2.10;;;;;;;2.21;83.15;99716.28;2100731;83;21597;-83
2022/01/28 04:23:11;;;;;;;11.20;2.02;;;;;;;2.28;82.70;99710.55;2093267;83;21692;-82
2022/01/28 04:26:13;;;;;;;7.92;2.15;;;;;;;2.31;82.64;99719.46;2098367;83;21672;-82
2022/01/28 04:29:15;;;;;;;7.70;2.27;;;;;;;2.33;82.31;99722.31;2100613;83;21030;-82
2022/01/28 04:32:18;;;;;;;9.60;2.12;;;;;;;2.37;82.21;99725.53;2099838;83;21517;-83
2022/01/28 04:35:20;;;;;;;7.75;2.37;;;;;;;2.39;82.07;99747.17;2101132;83;20967;-82
2022/01/28 04:51:31;;;;;;;8.73;2.20;;;;;;;2.41;81.74;99769.66;2099937;83;20995;-83
2022/01/28 05:04:09;;;;;;;8.33;2.22;;;;;;;2.43;81.37;99790.50;2073115;84;21049;-83
2022/01/28 05:23:52;;;;;;;11.22;2.67;;;;;;;2.52;80.47;99789.76;2095455;83;21526;-82
2022/01/28 05:26:34;;;;;;;12.68;2.00;;;;;;;2.53;79.80;99783.55;2098958;84;21479;-82
2022/01/28 05:29:29;;;;;;;9.40;2.52;;;;;;;2.54;79.46;99789.17;2095348;83;20994;-83
2022/01/28 05:32:30;;;;;;;8.20;2.50;;;;;;;2.54;79.60;99794.41;2096787;83;21086;-82
2022/01/28 05:35:31;;;;;;;11.45;2.83;;;;;;;2.55;79.63;99807.84;2074347;83;20987;-82
2022/01/28 05:38:33;;;;;;;8.53;2.47;;;;;;;2.57;79.15;99809.87;2096304;83;20959;-83
2022/01/28 05:41:34;;;;;;;9.18;2.60;;;;;;;2.59;79.09;99816.28;2096915;83;20948;-82
2022/01/28 05:44:35;;;;;;;11.53;2.58;;;;;;;2.60;79.12;99824.03;2095471;83;20979;-82
2022/01/28 05:47:36;;;;;;;9.35;2.37;;;;;;;2.59;79.11;99827.62;2096321;83;21018;-82
2022/01/28 05:50:38;;;;;;;8.70;2.00;;;;;;;2.56;79.04;99834.41;2072673;84;21011;-82
2022/01/28 05:53:39;;;;;;;10.40;2.25;;;;;;;2.56;79.04;99838.34;2100600;83;21587;-82
2022/01/28 05:56:41;;;;;;;6.22;2.02;;;;;;;2.53;79.15;99836.42;2099981;83;20990;-82
2022/01/28 05:59:42;;;;;;;8.65;2.37;;;;;;;2.51;79.29;99848.34;2096598;83;21015;-82
2022/01/28 06:02:45;;;;;;;13.83;2.83;;;;;;;2.51;79.04;99838.36;2096586;83;21028;-83
2022/01/28 06:05:48;;;;;;;5.53;1.98;;;;;;;2.51;79.10;99850.14;2104524;83;20984;-82
2022/01/28 06:08:53;;;;;;;7.67;2.85;;;;;;;2.50;78.75;99844.05;2097196;83;21082;-83
2022/01/28 06:11:54;;;;;;;8.33;2.60;;;;;;;2.51;79.00;99861.44;2097877;83;21053;-82
2022/01/28 06:14:55;;;;;;;11.65;2.83;;;;;;;2.51;79.01;99861.44;2101423;83;21609;-83
2022/01/28 06:17:57;;;;;;;6.45;2.27;;;;;;;2.51;78.88;99860.62;2097321;83;20986;-83
2022/01/28 06:20:58;;;;;;;9.88;2.50;;;;;;;2.49;78.92;99863.83;2097568;83;21527;-82
2022/01/28 06:24:00;;;;;;;8.63;2.17;;;;;;;2.49;78.89;99872.51;2096004;83;20982;-82
2022/01/28 06:27:01;;;;;;;6.65;2.37;;;;;;;2.47;79.00;99877.02;2098180;84;21029;-82
2022/01/28 06:30:05;;;;;;;14.38;2.05;;;;;;;2.49;78.97;99884.30;2099470;84;23074;-82
2022/01/28 06:33:06;;;;;;;7.97;2.55;;;;;;;2.51;79.03;99889.42;2101167;83;20999;-82
2022/01/28 06:36:07;;;;;;;9.63;2.67;;;;;;;2.49;78.83;99876.44;2099109;83;21018;-82
2022/01/28 06:39:09;;;;;;;10.98;3.47;;;;;;;2.52;78.77;99877.50;2102868;83;21061;-83
2022/01/28 06:42:10;;;;;;;9.63;2.45;;;;;;;2.52;78.68;99882.74;2095996;83;21366;-82
2022/01/28 06:45:11;;;;;;;9.10;2.10;;;;;;;2.52;78.64;99872.75;2099639;83;21066;-83
2022/01/28 06:48:15;;;;;;;12.10;2.47;;;;;;;2.53;78.49;99880.47;2100163;83;21058;-81
2022/01/28 06:51:17;;;;;;;10.68;2.40;;;;;;;2.57;78.04;99888.45;2099647;83;21001;-82
2022/01/28 06:54:18;;;;;;;14.58;3.12;;;;;;;2.61;78.08;99894.28;2095625;83;21078;-82
2022/01/28 06:57:19;;;;;;;9.55;2.80;;;;;;;2.60;78.28;99890.83;2100168;83;20994;-81
2022/01/28 07:00:20;;;;;;;8.98;2.67;;;;;;;2.61;77.89;99893.80;2096170;83;20948;-81
2022/01/28 07:03:22;;;;;;;7.00;2.42;;;;;;;2.63;77.54;99884.03;2096521;83;21528;-81
2022/01/28 07:06:23;;;;;;;11.25;2.62;;;;;;;2.66;77.39;99881.66;2095364;83;21002;-82
2022/01/28 07:09:24;;;;;;;10.28;2.60;;;;;;;2.68;77.49;99894.16;2089404;83;21578;-81
2022/01/28 07:12:26;;;;;;;8.53;3.00;;;;;;;2.68;77.31;99885.81;2068711;84;21035;-82
2022/01/28 07:15:29;;;;;;;9.13;2.30;;;;;;;2.71;77.42;99904.39;2063516;84;21039;-81
2022/01/28 07:18:30;;;;;;;10.50;2.72;;;;;;;2.71;77.15;99891.78;2067073;84;21525;-82
2022/01/28 07:21:32;;;;;;;10.90;2.60;;;;;;;2.73;77.02;99896.39;2068605;84;21022;-81
2022/01/28 07:24:34;;;;;;;10.60;2.77;;;;;;;2.75;77.26;99911.53;2061968;84;21010;-82
2022/01/28 07:27:35;;;;;;;11.22;3.12;;;;;;;2.75;76.94;99908.42;2045022;84;20967;-83
2022/01/28 07:30:36;;;;;;;12.37;3.05;;;;;;;2.78;76.61;99917.34;2064353;84;21572;-83
2022/01/28 07:33:38;;;;;;;9.73;2.30;;;;;;;2.78;76.76;99927.83;2071482;84;21047;-81
2022/01/28 07:36:40;;;;;;;11.20;2.87;;;;;;;2.78;76.97;99930.93;2061260;84;21074;-82
2022/01/28 07:39:41;;;;;;;10.90;2.17;;;;;;;2.77;77.22;99947.63;2070643;84;21021;-80
2022/01/28 07:42:43;;;;;;;10.05;2.83;;;;;;;2.75;77.00;99942.97;2072410;84;21553;-82
2022/01/28 07:45:44;;;;;;;12.03;2.77;;;;;;;2.73;77.08;99951.42;2066372;84;21070;-81
2022/01/28 07:48:45;;;;;;;6.25;2.27;;;;;;;2.72;77.35;99944.52;2072515;84;22286;-81
2022/01/28 07:51:48;;;;;;;10.53;2.58;;;;;;;2.68;77.51;99960.97;2074196;84;21042;-82
2022/01/28 07:54:50;;;;;;;15.75;3.40;;;;;;;2.67;77.75;99979.76;2060757;84;21058;-82
2022/01/28 07:57:51;;;;;;;11.63;2.83;;;;;;;2.64;77.84;99973.45;2061309;84;21074;-81
2022/01/28 08:00:53;;;;;;;13.30;2.95;;;;;;;2.64;77.99;99980.00;2071519;83;22340;-84
2022/01/28 08:03:54;;;;;;;11.88;3.20;;;;;;;2.64;77.89;99986.55;2066445;84;21015;-82
2022/01/28 08:06:55;;;;;;;15.18;4.17;;;;;;;2.67;77.92;99989.41;2062856;84;20990;-81
2022/01/28 08:09:57;;;;;;;15.00;3.40;;;;;;;2.67;78.12;100020.37;2081906;84;21066;-82
2022/01/28 08:13:01;;;;;;;12.03;3.83;;;;;;;2.68;78.19;100019.92;2103280;82;20955;-82
2022/01/28 08:16:02;;;;;;;12.23;3.22;;;;;;;2.69;78.03;100009.78;2102703;82;21353;-83
2022/01/28 08:19:03;;;;;;;11.33;3.15;;;;;;;2.73;78.12;100019.54;2091583;82;21016;-82
2022/01/28 08:22:07;;;;;;;9.15;2.62;;;;;;;2.74;78.19;100031.23;2094586;83;21018;-81
2022/01/28 08:25:08;;;;;;;9.30;3.40;;;;;;;2.75;78.18;100029.44;2100438;82;21032;-81
2022/01/28 08:28:10;;;;;;;14.98;3.55;;;;;;;2.76;78.37;100027.16;2097561;82;21030;-82
2022/01/28 08:31:11;;;;;;;11.45;3.10;;;;;;;2.74;78.54;100055.30;2097761;82;20981;-81
2022/01/28 08:34:13;;;;;;;8.68;3.10;;;;;;;2.72;78.81;100065.88;2102461;82;21481;-82
2022/01/28 08:37:14;;;;;;;11.35;3.33;;;;;;;2.72;78.73;100061.12;2099691;83;21050;-84
2022/01/28 08:40:16;;;;;;;17.17;3.72;;;;;;;2.70;78.86;100073.02;2101868;82;21547;-86
2022/01/28 08:43:18;;;;;;;11.35;3.58;;;;;;;2.68;78.95;100066.59;2098828;82;22196;-80
2022/01/28 08:46:19;;;;;;;17.12;3.98;;;;;;;2.66;79.15;100082.90;2104178;82;21020;-83
2022/01/28 08:49:21;;;;;;;12.95;3.62;;;;;;;2.68;79.15;100087.55;2102698;82;21483;-82
2022/01/28 08:52:22;;;;;;;13.98;3.37;;;;;;;2.68;79.07;100098.03;2101392;82;21003;-82
2022/01/28 08:55:25;;;;;;;13.75;3.30;;;;;;;2.67;79.23;100097.66;2099361;82;20966;-81
2022/01/28 08:58:26;;;;;;;14.10;3.37;;;;;;;2.68;79.02;100112.45;2095816;83;20974;-83
2022/01/28 09:01:29;;;;;;;16.12;3.27;;;;;;;2.68;79.17;100122.92;2096070;82;21036;-81
2022/01/28 09:04:30;;;;;;;12.68;3.02;;;;;;;2.69;79.06;100121.97;2100520;83;21008;-81
2022/01/28 09:07:32;;;;;;;18.30;3.47;;;;;;;2.73;79.20;100138.77;2101443;83;21045;-82
2022/01/28 09:10:33;;;;;;;13.38;3.30;;;;;;;2.75;79.10;100127.70;2053976;84;21034;-84
2022/01/28 09:13:38;;;;;;;15.35;3.80;;;;;;;2.77;79.22;100155.94;2063243;85;21066;-85
2022/01/28 09:16:40;;;;;;;8.93;2.80;;;;;;;2.77;78.91;100150.22;2065441;85;21065;-85
2022/01/28 09:19:44;;;;;;;14.98;3.30;;;;;;;2.79;79.21;100170.59;2064538;85;21085;-84
2022/01/28 09:22:45;;;;;;;10.15;2.75;;;;;;;2.81;79.21;100167.84;2062657;85;21058;-84
2022/01/28 09:25:46;;;;;;;10.28;3.17;;;;;;;2.79;79.29;100171.91;2061744;85;21588;-79
2022/01/28 09:28:48;;;;;;;11.73;3.67;;;;;;;2.78;79.53;100187.25;2060284;85;21043;-81
2022/01/28 09:31:49;;;;;;;12.55;3.58;;;;;;;2.78;79.70;100179.87;2063145;85;21513;-79
2022/01/28 09:34:51;;;;;;;9.60;3.27;;;;;;;2.74;79.86;100200.72;2063016;85;21070;-81
2022/01/28 09:37:53;;;;;;;15.20;3.22;;;;;;;2.73;80.11;100192.47;2063658;85;21107;-81
2022/01/28 09:40:56;;;;;;;11.03;3.33;;;;;;;2.74;80.38;100187.62;2064228;85;21105;-82
2022/01/28 09:44:00;;;;;;;13.13;3.52;;;;;;;2.76;80.46;100213.20;2060331;85;21050;-81
2022/01/28 09:47:01;;;;;;;11.65;3.15;;;;;;;2.79;80.53;100211.66;2065026;85;21600;-82
2022/01/28 09:50:06;;;;;;;16.12;3.75;;;;;;;2.78;80.50;100216.56;2065300;85;22520;-83
2022/01/28 09:53:08;;;;;;;9.40;3.60;;;;;;;2.79;80.42;100226.08;2060367;85;21132;-83
2022/01/28 09:56:09;;;;;;;17.37;4.45;;;;;;;2.81;80.47;100230.73;2062133;85;20966;-83
2022/01/28 09:59:11;;;;;;;14.15;3.98;;;;;;;2.84;80.69;100238.37;2063887;85;21021;-82
2022/01/28 10:02:13;;;;;;;14.93;3.67;;;;;;;2.86;80.49;100236.48;2062384;85;20978;-82
2022/01/28 10:05:30;;;;;;;9.75;3.35;;;;;;;2.86;80.51;100253.03;2058021;85;21017;-81
2022/01/28 10:08:32;;;;;;;12.18;2.65;;;;;;;2.87;80.60;100252.55;2060628;85;21010;-80
2022/01/28 10:11:35;;;;;;;9.33;3.27;;;;;;;2.89;80.66;100261.15;2097078;83;21025;-83
2022/01/28 10:15:00;;;;;;;13.15;3.17;;;;;;;2.91;80.90;100268.43;2097093;83;21024;-82
2022/01/28 10:18:02;;;;;;;11.65;3.22;;;;;;;2.95;80.96;100270.34;2101029;83;21001;-81
2022/01/28 10:21:36;;;;;;;9.33;3.37;;;;;;;3.02;80.77;100251.42;2102602;83;21055;-81
2022/01/28 10:24:38;;;;;;;14.60;3.60;;;;;;;3.08;80.87;100281.59;2097776;83;20999;-82
2022/01/28 10:27:45;;;;;;;10.53;3.42;;;;;;;3.14;80.75;100281.95;2097280;84;21023;-82
2022/01/28 10:30:46;;;;;;;11.38;3.12;;;;;;;3.19;80.16;100275.06;2093369;83;21043;-81
2022/01/28 10:33:48;;;;;;;12.58;3.02;;;;;;;3.25;80.27;100289.50;2098916;84;22082;-82
2022/01/28 10:36:51;;;;;;;10.45;3.05;;;;;;;3.30;80.39;100293.45;2099552;83;21603;-82
2022/01/28 10:40:01;;;;;;;12.98;3.08;;;;;;;3.34;79.87;100312.41;2099985;83;21027;-85
2022/01/28 10:43:02;;;;;;;10.90;3.42;;;;;;;3.34;79.68;100313.72;2095248;83;20959;-82
2022/01/28 10:46:07;;;;;;;15.25;3.75;;;;;;;3.33;80.02;100321.24;2074085;84;21657;-81
2022/01/28 10:49:32;;;;;;;12.07;3.47;;;;;;;3.33;79.56;100322.07;2095924;83;21054;-83
2022/01/28 10:52:34;;;;;;;15.13;3.35;;;;;;;3.34;79.53;100326.83;2085417;83;21523;-83
2022/01/28 10:55:43;;;;;;;16.30;3.33;;;;;;;3.36;79.18;100309.20;2099675;84;21533;-83
2022/01/28 10:58:46;;;;;;;10.10;3.00;;;;;;;3.36;79.52;100332.33;2098343;84;21502;-83
2022/01/28 11:01:49;;;;;;;17.57;3.60;;;;;;;3.39;79.45;100326.02;2076220;83;21010;-82
2022/01/28 11:04:53;;;;;;;13.50;3.42;;;;;;;3.43;79.13;100336.63;2095497;84;21001;-82
2022/01/28 11:07:56;;;;;;;12.00;3.30;;;;;;;3.45;78.38;100318.99;2100681;83;21006;-83
2022/01/28 11:10:59;;;;;;;14.20;3.58;;;;;;;3.50;78.64;100340.48;2093889;83;21018;-83
2022/01/28 11:14:01;;;;;;;13.35;3.80;;;;;;;3.56;78.79;100328.68;2098551;83;21026;-83
2022/01/28 11:17:04;;;;;;;19.87;3.70;;;;;;;3.62;77.55;100328.20;2095966;83;20972;-82
2022/01/28 11:20:08;;;;;;;16.07;4.58;;;;;;;3.69;78.12;100340.38;2071169;84;20983;-82
2022/01/28 11:23:18;;;;;;;11.78;3.50;;;;;;;3.74;77.93;100344.80;2101381;83;21042;-82
2022/01/28 11:26:52;;;;;;;13.30;3.45;;;;;;;3.76;77.54;100348.16;2093994;83;21537;-83
2022/01/28 11:30:26;;;;;;;15.25;3.98;;;;;;;3.77;77.55;100353.75;2095787;84;21046;-82
2022/01/28 11:33:33;;;;;;;16.07;3.77;;;;;;;3.71;76.91;100355.53;2096804;83;21048;-83
2022/01/28 11:36:36;;;;;;;10.80;3.42;;;;;;;3.65;77.10;100369.13;2093836;83;21107;-83
2022/01/28 11:39:41;;;;;;;15.18;3.42;;;;;;;3.63;76.63;100352.66;2098460;83;21078;-83
2022/01/28 11:43:45;;;;;;;;;;;;;;;;;;;;;
2022/01/28 11:55:01;;;;;;;;;;;;;;;;;;;;;
2022/01/28 12:10:51;;;;;;;12.03;3.47;;;;;;;3.77;76.09;100408.42;1655009;102;27906;-77
2022/01/28 12:14:03;;;;;;;12.37;3.40;;;;;;;3.76;75.31;100407.20;1682345;105;21188;-76
2022/01/28 12:17:00;;;;;;;12.20;3.52;;;;;;;3.75;75.43;100418.67;1693648;102;21184;-83
2022/01/28 12:20:37;;;;;;;13.13;3.58;;;;;;;3.76;75.02;100415.08;1712787;102;21674;-71
2022/01/28 12:23:43;;;;;;;19.35;4.50;;;;;;;3.77;74.99;100429.42;1701057;102;21235;-75
2022/01/28 12:27:02;;;;;;;12.82;3.40;;;;;;;3.76;74.83;100424.27;1706362;102;21202;-72
2022/01/28 12:30:09;;;;;;;13.55;3.22;;;;;;;3.73;74.40;100424.50;1709655;102;21519;-72
2022/01/28 12:33:12;;;;;;;9.03;3.37;;;;;;;3.72;74.54;100426.78;1731768;100;21688;-71
2022/01/28 12:36:21;;;;;;;16.80;3.40;;;;;;;3.70;74.40;100419.48;1757148;100;22274;-71
2022/01/28 12:39:35;;;;;;;17.95;3.72;;;;;;;3.69;74.36;100434.85;1779123;99;22693;-71
2022/01/28 12:42:40;;;;;;;13.38;3.52;;;;;;;3.68;74.24;100429.25;1776845;99;21491;-70
2022/01/28 12:45:59;;;;;;;13.15;4.50;;;;;;;3.68;74.70;100445.83;1831347;94;21129;-71
2022/01/28 12:49:02;;;;;;;13.95;3.72;;;;;;;3.70;74.51;100441.31;1952766;87;21034;-70
2022/01/28 12:52:08;;;;;;;16.93;3.42;;;;;;;3.72;74.35;100443.84;1969925;89;21089;-71
2022/01/28 12:55:13;;;;;;;12.95;3.42;;;;;;;3.73;74.34;100445.50;1971745;89;21052;-71
2022/01/28 12:58:16;;;;;;;17.30;5.00;;;;;;;3.72;73.46;100453.02;1979991;87;21010;-72
2022/01/28 13:01:20;;;;;;;17.50;3.72;;;;;;;3.69;73.69;100444.04;2035804;84;21151;-71
2022/01/28 13:04:25;;;;;;;18.20;3.90;;;;;;;3.66;73.50;100456.94;2069648;85;21067;-74
2022/01/28 13:10:41;;;;;;;16.30;3.60;;;;;;;3.61;73.39;100472.19;2033824;85;21088;-73
2022/01/28 13:13:56;;;;;;;14.95;3.77;;;;;;;3.59;73.46;100471.45;2039745;85;21137;-73
2022/01/28 13:16:59;;;;;;;23.42;4.42;;;;;;;3.55;73.57;100487.91;2041653;84;21095;-72
2022/01/28 13:20:04;;;;;;;13.28;3.20;;;;;;;3.55;73.22;100492.33;2042869;85;21049;-72
2022/01/28 13:23:10;;;;;;;11.93;3.47;;;;;;;3.53;73.54;100502.91;2042393;85;21060;-72
2022/01/28 13:26:16;;;;;;;21.17;3.40;;;;;;;3.51;73.36;100510.05;2039265;85;21096;-73
2022/01/28 13:29:17;;;;;;;18.75;4.28;;;;;;;3.51;73.11;100503.50;2040164;85;21068;-72
2022/01/28 13:32:36;;;;;;;13.18;3.30;;;;;;;3.50;73.19;100508.39;2032933;85;21657;-73
2022/01/28 13:35:36;;;;;;;13.83;3.90;;;;;;;3.49;73.34;100517.22;2040375;85;20979;-72
2022/01/28 13:38:40;;;;;;;16.12;3.62;;;;;;;3.49;73.65;100526.85;2024670;84;21007;-71
2022/01/28 13:41:47;;;;;;;12.68;4.03;;;;;;;3.45;73.69;100531.49;2013299;86;21035;-70
2022/01/28 13:44:49;;;;;;;16.93;4.80;;;;;;;3.43;73.60;100525.52;2029474;85;21136;-74
2022/01/28 13:47:53;;;;;;;20.92;5.00;;;;;;;3.42;73.67;100521.70;2015170;86;21392;-72
2022/01/28 13:51:05;;;;;;;20.95;4.75;;;;;;;3.39;73.71;100545.05;2035606;85;21054;-75
2022/01/28 13:57:10;;;;;;;13.10;4.10;;;;;;;3.29;74.15;100567.63;2023468;84;21048;-75
2022/01/28 14:00:13;;;;;;;13.35;3.35;;;;;;;3.25;74.12;100567.50;2036467;84;21024;-73
2022/01/28 14:03:22;;;;;;;18.92;4.50;;;;;;;3.20;74.64;100574.38;2034522;85;21057;-75
2022/01/28 14:06:31;;;;;;;16.10;4.30;;;;;;;3.10;75.11;100586.00;2040165;85;21519;-73
2022/01/28 14:09:42;;;;;;;17.57;3.52;;;;;;;3.05;75.30;100578.09;2039194;85;21044;-74
2022/01/28 14:12:51;;;;;;;14.18;4.03;;;;;;;3.02;74.96;100583.06;2067372;83;20989;-73
2022/01/28 14:16:04;;;;;;;20.12;7.30;;;;;;;3.03;75.33;100593.91;2088162;83;21130;-73
2022/01/28 14:18:56;;;;;;;16.10;5.12;;;;;;;3.03;75.23;100600.46;2081080;83;20995;-71
2022/01/28 14:21:58;;;;;;;16.75;4.92;;;;;;;3.03;75.27;100590.45;2083724;83;21058;-73
2022/01/28 14:25:00;;;;;;;18.05;5.28;;;;;;;3.02;75.39;100602.73;2081507;83;21067;-70
2022/01/28 14:31:12;;;;;;;9.85;3.22;;;;;;;3.05;75.50;100613.00;2060293;83;21074;-71
2022/01/28 14:34:11;;;;;;;20.95;5.22;;;;;;;3.07;75.19;100615.50;2080974;83;21066;-71
2022/01/28 14:37:14;;;;;;;19.82;5.33;;;;;;;3.08;75.26;100631.14;2082697;83;20981;-71
2022/01/28 14:40:17;;;;;;;15.65;4.95;;;;;;;3.08;75.43;100642.94;2081070;84;21085;-72
2022/01/28 14:43:19;;;;;;;10.13;3.77;;;;;;;3.05;75.47;100633.98;2078436;84;21013;-71
2022/01/28 14:46:21;;;;;;;15.68;3.40;;;;;;;3.03;75.42;100654.69;2064109;84;21093;-70
2022/01/28 14:49:23;;;;;;;19.95;5.87;;;;;;;3.02;75.54;100668.28;2065570;84;21635;-71
2022/01/28 14:52:29;;;;;;;14.33;4.05;;;;;;;3.06;75.40;100667.11;2089254;83;20952;-70
2022/01/28 14:55:30;;;;;;;17.70;4.45;;;;;;;3.06;75.21;100676.28;2083883;83;21450;-70
2022/01/28 14:58:32;;;;;;;12.53;3.40;;;;;;;3.07;75.23;100684.98;2075101;83;21047;-70
2022/01/28 15:01:36;;;;;;;10.70;4.00;;;;;;;3.07;75.01;100681.91;2087247;82;21030;-71
2022/01/28 15:04:38;;;;;;;14.85;4.50;;;;;;;3.09;74.99;100687.04;2083357;83;21054;-73
2022/01/28 15:07:40;;;;;;;23.27;4.70;;;;;;;3.10;74.90;100690.05;2087908;83;21603;-71
2022/01/28 15:10:42;;;;;;;23.67;5.12;;;;;;;3.10;74.64;100677.77;2080911;83;21402;-71
2022/01/28 15:13:44;;;;;;;12.63;3.80;;;;;;;3.11;74.36;100695.17;2083433;83;21023;-72
2022/01/28 15:16:48;;;;;;;13.85;4.53;;;;;;;3.10;74.33;100696.12;2081827;83;21040;-73
2022/01/28 15:19:51;;;;;;;13.83;3.70;;;;;;;3.10;74.42;100693.98;2084527;83;20970;-71
2022/01/28 15:22:52;;;;;;;16.42;4.72;;;;;;;3.10;74.45;100707.09;2082481;83;20958;-71
2022/01/28 15:25:54;;;;;;;20.52;5.28;;;;;;;3.08;74.38;100680.13;2085726;83;21463;-72
2022/01/28 15:29:02;;;;;;;16.95;4.12;;;;;;;3.06;74.33;100692.49;2084053;83;20978;-72
2022/01/28 15:35:48;;;;;;;16.48;4.50;;;;;;;3.03;74.33;100705.81;2084376;83;21105;-72
2022/01/28 15:38:34;;;;;;;18.85;4.10;;;;;;;3.01;73.96;100713.77;2080059;83;21148;-70
2022/01/28 15:41:36;;;;;;;12.05;4.00;;;;;;;2.97;73.46;100714.94;2092169;83;21027;-71
2022/01/28 15:44:38;;;;;;;10.63;3.40;;;;;;;2.92;73.56;100728.81;2088682;83;21121;-72
2022/01/28 15:47:40;;;;;;;9.13;3.10;;;;;;;2.88;73.71;100726.05;2092688;83;21048;-73
2022/01/28 15:50:47;;;;;;;13.60;4.28;;;;;;;2.85;73.24;100734.11;2083214;83;21472;-71
2022/01/28 15:53:47;;;;;;;17.45;4.67;;;;;;;2.84;73.61;100742.90;2082919;83;21148;-75
2022/01/28 15:56:48;;;;;;;11.15;3.27;;;;;;;2.81;73.72;100740.48;2087488;84;21073;-74
2022/01/28 15:59:50;;;;;;;10.75;4.05;;;;;;;2.82;73.54;100750.88;2083775;82;21098;-75
2022/01/28 16:02:52;;;;;;;11.65;3.85;;;;;;;2.81;73.49;100763.59;2089704;82;21056;-75
2022/01/28 16:05:54;;;;;;;15.23;5.30;;;;;;;2.78;73.48;100764.28;2091062;84;21601;-75
2022/01/28 16:08:57;;;;;;;20.50;6.33;;;;;;;2.74;73.68;100762.81;2086222;84;20939;-74
2022/01/28 16:12:01;;;;;;;22.73;6.40;;;;;;;2.68;73.68;100775.38;2085485;84;21017;-74
2022/01/28 16:15:20;;;;;;;23.40;6.12;;;;;;;2.68;73.67;100774.54;2105254;83;22408;-74
2022/01/28 16:18:11;;;;;;;15.03;5.08;;;;;;;2.72;73.67;100781.72;2095425;83;21068;-73
2022/01/28 16:21:13;;;;;;;18.32;5.42;;;;;;;2.71;73.76;100792.68;2104375;83;21283;-73
2022/01/28 16:24:15;;;;;;;18.75;5.17;;;;;;;2.66;73.82;100806.07;2102519;83;21053;-72
2022/01/28 16:27:17;;;;;;;15.35;4.90;;;;;;;2.65;73.61;100803.09;2103170;83;21759;-72